Terminal Aerodrome Forecast
Issued by NWS

Home | Current Version | Previous Version | Graphics & Text | Print | Product List | Glossary On
Versions: 1 2 3 4 5 6 7 8 9 10 11 12 13 14 15 16 17 18 19 20 21
000
FTUS43 KIWX 301452 AAA
TAFSBN
TAF AMD
KSBN 301452Z 3015/3112 04005KT P6SM VCSH OVC015
     FM301800 36006KT P6SM VCTS BKN025CB
     FM310100 36005KT P6SM SCT050 BKN120
     FM310900 34003KT 2SM BR BKN015=

USA.gov is the U.S. government's official web portal to all federal, state and local government web resources and services.